sensor_id;sensor_type;location;lat;lon;timestamp;temperature;humidity
3202;DHT22;34843;48.744;8.958;2023-09-19T00:00:19;16.40;99.90
3202;DHT22;34843;48.744;8.958;2023-09-19T00:02:55;16.40;99.90
3202;DHT22;34843;48.744;8.958;2023-09-19T00:05:25;16.30;99.90
3202;DHT22;34843;48.744;8.958;2023-09-19T00:07:54;16.40;99.90
3202;DHT22;34843;48.744;8.958;2023-09-19T00:10:21;16.40;99.90
3202;DHT22;34843;48.744;8.958;2023-09-19T00:12:47;16.30;99.90
3202;DHT22;34843;48.744;8.958;2023-09-19T00:15:13;16.30;99.90
3202;DHT22;34843;48.744;8.958;2023-09-19T00:17:38;16.30;99.90
3202;DHT22;34843;48.744;8.958;2023-09-19T00:20:06;16.30;99.90
3202;DHT22;34843;48.744;8.958;2023-09-19T00:22:33;16.30;99.90
3202;DHT22;34843;48.744;8.958;2023-09-19T00:24:59;16.30;99.90
3202;DHT22;34843;48.744;8.958;2023-09-19T00:27:26;16.30;99.90
3202;DHT22;34843;48.744;8.958;2023-09-19T00:29:51;16.30;99.90
3202;DHT22;34843;48.744;8.958;2023-09-19T00:32:18;16.20;99.90
3202;DHT22;34843;48.744;8.958;2023-09-19T00:34:43;16.20;99.90
3202;DHT22;34843;48.744;8.958;2023-09-19T00:37:09;16.20;99.90
3202;DHT22;34843;48.744;8.958;2023-09-19T00:39:36;16.20;99.90
3202;DHT22;34843;48.744;8.958;2023-09-19T00:42:02;16.30;99.90
3202;DHT22;34843;48.744;8.958;2023-09-19T00:44:30;16.20;99.90
3202;DHT22;34843;48.744;8.958;2023-09-19T00:46:56;16.20;99.90
3202;DHT22;34843;48.744;8.958;2023-09-19T00:49:21;16.20;99.90
3202;DHT22;34843;48.744;8.958;2023-09-19T00:51:48;16.20;99.90
3202;DHT22;34843;48.744;8.958;2023-09-19T00:54:14;16.20;99.90
3202;DHT22;34843;48.744;8.958;2023-09-19T00:56:44;16.20;99.90
3202;DHT22;34843;48.744;8.958;2023-09-19T00:59:10;16.20;99.90
3202;DHT22;34843;48.744;8.958;2023-09-19T01:01:37;16.10;99.90
3202;DHT22;34843;48.744;8.958;2023-09-19T01:04:05;16.10;99.90
3202;DHT22;34843;48.744;8.958;2023-09-19T01:06:31;16.10;99.90
3202;DHT22;34843;48.744;8.958;2023-09-19T01:08:57;16.10;99.90
3202;DHT22;34843;48.744;8.958;2023-09-19T01:11:33;16.00;99.90
3202;DHT22;34843;48.744;8.958;2023-09-19T01:17:09;16.00;99.90
3202;DHT22;34843;48.744;8.958;2023-09-19T01:20:23;16.00;99.90
3202;DHT22;34843;48.744;8.958;2023-09-19T01:30:46;16.00;99.90
3202;DHT22;34843;48.744;8.958;2023-09-19T01:33:12;15.90;99.90
3202;DHT22;34843;48.744;8.958;2023-09-19T01:35:40;16.00;99.90
3202;DHT22;34843;48.744;8.958;2023-09-19T01:38:06;15.90;99.90
3202;DHT22;34843;48.744;8.958;2023-09-19T01:40:42;16.00;99.90
3202;DHT22;34843;48.744;8.958;2023-09-19T01:43:21;16.00;99.90
3202;DHT22;34843;48.744;8.958;2023-09-19T01:49:11;16.00;99.90
3202;DHT22;34843;48.744;8.958;2023-09-19T01:51:56;16.00;99.90
3202;DHT22;34843;48.744;8.958;2023-09-19T01:54:34;15.80;99.90
3202;DHT22;34843;48.744;8.958;2023-09-19T01:57:17;15.80;99.90
3202;DHT22;34843;48.744;8.958;2023-09-19T01:59:50;15.70;99.90
3202;DHT22;34843;48.744;8.958;2023-09-19T02:02:20;15.60;99.90
3202;DHT22;34843;48.744;8.958;2023-09-19T02:04:48;15.50;99.90
3202;DHT22;34843;48.744;8.958;2023-09-19T02:07:14;15.50;99.90
3202;DHT22;34843;48.744;8.958;2023-09-19T02:09:40;15.40;99.90
3202;DHT22;34843;48.744;8.958;2023-09-19T02:12:09;15.30;99.90
3202;DHT22;34843;48.744;8.958;2023-09-19T02:14:35;15.20;99.90
3202;DHT22;34843;48.744;8.958;2023-09-19T02:17:02;15.20;99.90
3202;DHT22;34843;48.744;8.958;2023-09-19T02:19:36;15.10;99.90
3202;DHT22;34843;48.744;8.958;2023-09-19T02:22:04;15.10;99.90
3202;DHT22;34843;48.744;8.958;2023-09-19T02:24:33;15.10;99.90
3202;DHT22;34843;48.744;8.958;2023-09-19T02:26:59;15.10;99.90
3202;DHT22;34843;48.744;8.958;2023-09-19T02:29:29;15.00;99.90
3202;DHT22;34843;48.744;8.958;2023-09-19T02:31:55;15.00;99.90
3202;DHT22;34843;48.744;8.958;2023-09-19T02:34:24;14.90;99.90
3202;DHT22;34843;48.744;8.958;2023-09-19T02:36:50;14.90;99.90
3202;DHT22;34843;48.744;8.958;2023-09-19T02:39:17;14.80;99.90
3202;DHT22;34843;48.744;8.958;2023-09-19T02:41:43;14.80;99.90
3202;DHT22;34843;48.744;8.958;2023-09-19T02:44:08;14.80;99.90
3202;DHT22;34843;48.744;8.958;2023-09-19T02:46:34;14.80;99.90
3202;DHT22;34843;48.744;8.958;2023-09-19T02:49:03;14.70;99.90
3202;DHT22;34843;48.744;8.958;2023-09-19T02:51:32;14.10;99.90
3202;DHT22;34843;48.744;8.958;2023-09-19T02:53:59;14.90;99.90
3202;DHT22;34843;48.744;8.958;2023-09-19T02:56:25;14.90;99.90
3202;DHT22;34843;48.744;8.958;2023-09-19T02:58:50;15.00;99.90
3202;DHT22;34843;48.744;8.958;2023-09-19T03:01:17;15.00;99.90
3202;DHT22;34843;48.744;8.958;2023-09-19T03:03:43;15.20;99.90
3202;DHT22;34843;48.744;8.958;2023-09-19T03:06:10;15.20;99.90
3202;DHT22;34843;48.744;8.958;2023-09-19T03:08:38;15.20;99.90
3202;DHT22;34843;48.744;8.958;2023-09-19T03:11:05;15.30;99.90
3202;DHT22;34843;48.744;8.958;2023-09-19T03:13:36;15.40;99.90
3202;DHT22;34843;48.744;8.958;2023-09-19T03:16:03;15.40;99.90
3202;DHT22;34843;48.744;8.958;2023-09-19T03:18:34;15.50;99.90
3202;DHT22;34843;48.744;8.958;2023-09-19T03:21:00;15.50;99.90
3202;DHT22;34843;48.744;8.958;2023-09-19T03:23:26;15.50;99.90
3202;DHT22;34843;48.744;8.958;2023-09-19T03:25:52;15.60;99.90
3202;DHT22;34843;48.744;8.958;2023-09-19T03:28:18;15.60;99.90
3202;DHT22;34843;48.744;8.958;2023-09-19T03:30:44;15.60;99.90
3202;DHT22;34843;48.744;8.958;2023-09-19T03:33:09;15.60;99.90
3202;DHT22;34843;48.744;8.958;2023-09-19T03:35:37;15.70;99.90
3202;DHT22;34843;48.744;8.958;2023-09-19T03:38:03;15.70;99.90
3202;DHT22;34843;48.744;8.958;2023-09-19T03:40:29;15.70;99.90
3202;DHT22;34843;48.744;8.958;2023-09-19T03:42:55;15.70;99.90
3202;DHT22;34843;48.744;8.958;2023-09-19T03:45:20;15.70;99.90
3202;DHT22;34843;48.744;8.958;2023-09-19T03:47:46;15.70;99.90
3202;DHT22;34843;48.744;8.958;2023-09-19T03:50:15;15.70;99.90
3202;DHT22;34843;48.744;8.958;2023-09-19T03:52:43;15.80;99.90
3202;DHT22;34843;48.744;8.958;2023-09-19T03:55:09;15.80;99.90
3202;DHT22;34843;48.744;8.958;2023-09-19T03:57:38;15.80;99.90
3202;DHT22;34843;48.744;8.958;2023-09-19T04:00:04;15.80;99.90
3202;DHT22;34843;48.744;8.958;2023-09-19T04:02:38;15.90;99.90
3202;DHT22;34843;48.744;8.958;2023-09-19T04:05:03;15.90;99.90
3202;DHT22;34843;48.744;8.958;2023-09-19T04:07:29;15.90;99.90
3202;DHT22;34843;48.744;8.958;2023-09-19T04:09:55;16.00;99.90
3202;DHT22;34843;48.744;8.958;2023-09-19T04:12:20;16.00;99.90
3202;DHT22;34843;48.744;8.958;2023-09-19T04:14:46;16.00;99.90
3202;DHT22;34843;48.744;8.958;2023-09-19T04:17:12;16.00;99.90
3202;DHT22;34843;48.744;8.958;2023-09-19T04:19:37;16.00;99.90
3202;DHT22;34843;48.744;8.958;2023-09-19T04:22:03;16.00;99.90
3202;DHT22;34843;48.744;8.958;2023-09-19T04:24:29;16.10;99.90
3202;DHT22;34843;48.744;8.958;2023-09-19T04:26:55;16.10;99.90
3202;DHT22;34843;48.744;8.958;2023-09-19T04:29:22;16.10;99.90
3202;DHT22;34843;48.744;8.958;2023-09-19T04:31:47;16.10;99.90
3202;DHT22;34843;48.744;8.958;2023-09-19T04:34:13;16.10;99.90
3202;DHT22;34843;48.744;8.958;2023-09-19T04:36:42;16.10;99.90
3202;DHT22;34843;48.744;8.958;2023-09-19T04:39:08;16.20;99.90
3202;DHT22;34843;48.744;8.958;2023-09-19T04:41:36;16.20;99.90
3202;DHT22;34843;48.744;8.958;2023-09-19T04:44:04;16.20;99.90
3202;DHT22;34843;48.744;8.958;2023-09-19T04:46:30;16.10;99.90
3202;DHT22;34843;48.744;8.958;2023-09-19T04:48:55;16.00;99.90
3202;DHT22;34843;48.744;8.958;2023-09-19T04:51:21;16.00;99.90
3202;DHT22;34843;48.744;8.958;2023-09-19T04:53:47;16.00;99.90
3202;DHT22;34843;48.744;8.958;2023-09-19T04:56:13;16.00;99.90
3202;DHT22;34843;48.744;8.958;2023-09-19T04:58:38;15.90;99.90
3202;DHT22;34843;48.744;8.958;2023-09-19T05:01:04;15.90;99.90
3202;DHT22;34843;48.744;8.958;2023-09-19T05:03:30;15.90;99.90
3202;DHT22;34843;48.744;8.958;2023-09-19T05:05:55;15.90;99.90
3202;DHT22;34843;48.744;8.958;2023-09-19T05:08:21;15.80;99.90
3202;DHT22;34843;48.744;8.958;2023-09-19T05:10:47;15.80;99.90
3202;DHT22;34843;48.744;8.958;2023-09-19T05:13:14;15.80;99.90
3202;DHT22;34843;48.744;8.958;2023-09-19T05:15:40;15.80;99.90
3202;DHT22;34843;48.744;8.958;2023-09-19T05:18:05;15.80;99.90
3202;DHT22;34843;48.744;8.958;2023-09-19T05:20:32;15.80;99.90
3202;DHT22;34843;48.744;8.958;2023-09-19T05:22:59;15.80;99.90
3202;DHT22;34843;48.744;8.958;2023-09-19T05:25:31;15.70;99.90
3202;DHT22;34843;48.744;8.958;2023-09-19T05:27:58;15.70;99.90
3202;DHT22;34843;48.744;8.958;2023-09-19T05:30:25;15.70;99.90
3202;DHT22;34843;48.744;8.958;2023-09-19T05:32:53;15.80;99.90
3202;DHT22;34843;48.744;8.958;2023-09-19T05:35:19;15.70;99.90
3202;DHT22;34843;48.744;8.958;2023-09-19T05:37:47;15.60;99.90
3202;DHT22;34843;48.744;8.958;2023-09-19T05:40:14;15.50;99.90
3202;DHT22;34843;48.744;8.958;2023-09-19T05:42:40;15.30;99.90
3202;DHT22;34843;48.744;8.958;2023-09-19T05:45:06;15.20;99.90
3202;DHT22;34843;48.744;8.958;2023-09-19T05:47:33;15.20;99.90
3202;DHT22;34843;48.744;8.958;2023-09-19T05:49:58;15.20;99.90
3202;DHT22;34843;48.744;8.958;2023-09-19T05:52:25;15.20;99.90
3202;DHT22;34843;48.744;8.958;2023-09-19T05:54:50;15.10;99.90
3202;DHT22;34843;48.744;8.958;2023-09-19T05:57:16;15.00;99.90
3202;DHT22;34843;48.744;8.958;2023-09-19T05:59:41;14.90;99.90
3202;DHT22;34843;48.744;8.958;2023-09-19T06:02:08;14.90;99.90
3202;DHT22;34843;48.744;8.958;2023-09-19T06:04:35;14.70;99.90
3202;DHT22;34843;48.744;8.958;2023-09-19T06:07:01;14.80;99.90
3202;DHT22;34843;48.744;8.958;2023-09-19T06:09:31;14.70;99.90
3202;DHT22;34843;48.744;8.958;2023-09-19T06:11:57;14.70;99.90
3202;DHT22;34843;48.744;8.958;2023-09-19T06:14:23;14.70;99.90
3202;DHT22;34843;48.744;8.958;2023-09-19T06:16:50;14.70;99.90
3202;DHT22;34843;48.744;8.958;2023-09-19T06:19:15;14.70;99.90
3202;DHT22;34843;48.744;8.958;2023-09-19T06:21:41;14.70;99.90
3202;DHT22;34843;48.744;8.958;2023-09-19T06:24:07;14.80;99.90
3202;DHT22;34843;48.744;8.958;2023-09-19T06:26:32;14.90;99.90
3202;DHT22;34843;48.744;8.958;2023-09-19T06:28:58;15.20;99.90
3202;DHT22;34843;48.744;8.958;2023-09-19T06:31:25;15.40;99.90
3202;DHT22;34843;48.744;8.958;2023-09-19T06:33:52;15.70;99.90
3202;DHT22;34843;48.744;8.958;2023-09-19T06:36:17;15.70;99.90
3202;DHT22;34843;48.744;8.958;2023-09-19T06:38:44;15.90;99.90
3202;DHT22;34843;48.744;8.958;2023-09-19T06:41:11;16.30;99.90
3202;DHT22;34843;48.744;8.958;2023-09-19T06:43:38;17.30;99.90
3202;DHT22;34843;48.744;8.958;2023-09-19T06:46:04;17.50;99.90
3202;DHT22;34843;48.744;8.958;2023-09-19T06:48:32;18.80;99.90
3202;DHT22;34843;48.744;8.958;2023-09-19T06:50:59;18.40;99.90
3202;DHT22;34843;48.744;8.958;2023-09-19T06:53:30;19.00;99.90
3202;DHT22;34843;48.744;8.958;2023-09-19T06:55:57;19.10;99.90
3202;DHT22;34843;48.744;8.958;2023-09-19T06:58:23;19.20;99.90
3202;DHT22;34843;48.744;8.958;2023-09-19T07:00:48;19.00;99.90
3202;DHT22;34843;48.744;8.958;2023-09-19T07:03:15;18.70;99.90
3202;DHT22;34843;48.744;8.958;2023-09-19T07:05:44;18.70;99.90
3202;DHT22;34843;48.744;8.958;2023-09-19T07:08:10;18.70;99.90
3202;DHT22;34843;48.744;8.958;2023-09-19T07:10:38;18.50;99.90
3202;DHT22;34843;48.744;8.958;2023-09-19T07:13:07;18.20;99.90
3202;DHT22;34843;48.744;8.958;2023-09-19T07:15:35;18.20;99.90
3202;DHT22;34843;48.744;8.958;2023-09-19T07:18:12;18.20;99.90
3202;DHT22;34843;48.744;8.958;2023-09-19T07:20:38;18.30;99.90
3202;DHT22;34843;48.744;8.958;2023-09-19T07:23:03;18.30;99.90
3202;DHT22;34843;48.744;8.958;2023-09-19T07:25:29;18.30;99.90
3202;DHT22;34843;48.744;8.958;2023-09-19T07:27:56;18.40;99.90
3202;DHT22;34843;48.744;8.958;2023-09-19T07:30:22;18.40;99.90
3202;DHT22;34843;48.744;8.958;2023-09-19T07:32:47;18.40;99.90
3202;DHT22;34843;48.744;8.958;2023-09-19T07:35:13;18.40;99.90
3202;DHT22;34843;48.744;8.958;2023-09-19T07:37:40;18.50;99.90
3202;DHT22;34843;48.744;8.958;2023-09-19T07:40:06;18.50;99.90
3202;DHT22;34843;48.744;8.958;2023-09-19T07:42:37;18.50;99.90
3202;DHT22;34843;48.744;8.958;2023-09-19T07:45:06;18.60;99.90
3202;DHT22;34843;48.744;8.958;2023-09-19T07:47:33;18.70;99.90
3202;DHT22;34843;48.744;8.958;2023-09-19T07:49:59;18.80;99.90
3202;DHT22;34843;48.744;8.958;2023-09-19T07:52:27;18.90;99.90
3202;DHT22;34843;48.744;8.958;2023-09-19T07:54:53;19.10;99.90
3202;DHT22;34843;48.744;8.958;2023-09-19T07:57:18;19.30;99.90
3202;DHT22;34843;48.744;8.958;2023-09-19T07:59:45;19.50;99.90
3202;DHT22;34843;48.744;8.958;2023-09-19T08:02:11;19.70;99.90
3202;DHT22;34843;48.744;8.958;2023-09-19T08:04:43;20.00;99.90
3202;DHT22;34843;48.744;8.958;2023-09-19T08:07:08;20.10;99.90
3202;DHT22;34843;48.744;8.958;2023-09-19T08:09:34;20.10;99.90
3202;DHT22;34843;48.744;8.958;2023-09-19T08:12:00;20.20;99.90
3202;DHT22;34843;48.744;8.958;2023-09-19T08:14:28;20.00;99.90
3202;DHT22;34843;48.744;8.958;2023-09-19T08:16:58;19.90;99.90
3202;DHT22;34843;48.744;8.958;2023-09-19T08:19:24;19.90;99.90
3202;DHT22;34843;48.744;8.958;2023-09-19T08:21:56;20.10;99.90
3202;DHT22;34843;48.744;8.958;2023-09-19T08:24:27;20.20;99.90
3202;DHT22;34843;48.744;8.958;2023-09-19T08:26:54;20.10;99.90
3202;DHT22;34843;48.744;8.958;2023-09-19T08:29:20;17.90;99.90
3202;DHT22;34843;48.744;8.958;2023-09-19T08:31:46;20.10;99.90
3202;DHT22;34843;48.744;8.958;2023-09-19T08:34:15;20.00;99.90
3202;DHT22;34843;48.744;8.958;2023-09-19T08:36:41;20.00;99.90
3202;DHT22;34843;48.744;8.958;2023-09-19T08:39:08;19.90;99.90
3202;DHT22;34843;48.744;8.958;2023-09-19T08:41:34;19.80;99.90
3202;DHT22;34843;48.744;8.958;2023-09-19T08:44:00;19.80;99.90
3202;DHT22;34843;48.744;8.958;2023-09-19T08:46:30;19.80;99.90
3202;DHT22;34843;48.744;8.958;2023-09-19T08:49:13;19.80;99.90
3202;DHT22;34843;48.744;8.958;2023-09-19T08:51:46;19.80;99.90
3202;DHT22;34843;48.744;8.958;2023-09-19T08:54:24;19.90;99.90
3202;DHT22;34843;48.744;8.958;2023-09-19T08:56:54;20.00;99.90
3202;DHT22;34843;48.744;8.958;2023-09-19T08:59:23;20.00;99.90
3202;DHT22;34843;48.744;8.958;2023-09-19T09:01:50;20.00;99.90
3202;DHT22;34843;48.744;8.958;2023-09-19T09:04:19;20.00;99.90
3202;DHT22;34843;48.744;8.958;2023-09-19T09:06:45;19.80;99.90
3202;DHT22;34843;48.744;8.958;2023-09-19T09:09:14;19.70;99.90
3202;DHT22;34843;48.744;8.958;2023-09-19T09:11:40;19.70;99.90
3202;DHT22;34843;48.744;8.958;2023-09-19T09:14:06;20.00;99.90
3202;DHT22;34843;48.744;8.958;2023-09-19T09:16:35;20.30;99.90
3202;DHT22;34843;48.744;8.958;2023-09-19T09:19:01;20.40;99.90
3202;DHT22;34843;48.744;8.958;2023-09-19T09:21:27;20.50;99.90
3202;DHT22;34843;48.744;8.958;2023-09-19T09:23:54;20.50;99.90
3202;DHT22;34843;48.744;8.958;2023-09-19T09:26:41;20.50;99.90
3202;DHT22;34843;48.744;8.958;2023-09-19T09:29:12;20.50;99.90
3202;DHT22;34843;48.744;8.958;2023-09-19T09:31:38;20.30;99.90
3202;DHT22;34843;48.744;8.958;2023-09-19T09:34:04;20.50;99.90
3202;DHT22;34843;48.744;8.958;2023-09-19T09:36:38;20.50;99.90
3202;DHT22;34843;48.744;8.958;2023-09-19T09:39:06;20.50;99.90
3202;DHT22;34843;48.744;8.958;2023-09-19T09:41:50;20.70;99.90
3202;DHT22;34843;48.744;8.958;2023-09-19T09:44:17;21.00;99.90
3202;DHT22;34843;48.744;8.958;2023-09-19T09:46:47;21.00;99.90
3202;DHT22;34843;48.744;8.958;2023-09-19T09:49:26;20.90;99.90
3202;DHT22;34843;48.744;8.958;2023-09-19T09:52:01;20.50;99.90
3202;DHT22;34843;48.744;8.958;2023-09-19T09:54:31;20.40;99.90
3202;DHT22;34843;48.744;8.958;2023-09-19T09:57:03;20.30;99.90
3202;DHT22;34843;48.744;8.958;2023-09-19T10:02:40;20.50;99.90
3202;DHT22;34843;48.744;8.958;2023-09-19T10:05:17;20.60;99.90
3202;DHT22;34843;48.744;8.958;2023-09-19T10:07:48;20.40;99.90
3202;DHT22;34843;48.744;8.958;2023-09-19T10:13:04;20.40;99.90
3202;DHT22;34843;48.744;8.958;2023-09-19T10:15:32;20.40;99.90
3202;DHT22;34843;48.744;8.958;2023-09-19T10:18:00;20.10;99.90
3202;DHT22;34843;48.744;8.958;2023-09-19T10:20:28;20.10;99.90
3202;DHT22;34843;48.744;8.958;2023-09-19T10:23:10;20.30;99.90
3202;DHT22;34843;48.744;8.958;2023-09-19T10:25:43;20.40;99.90
3202;DHT22;34843;48.744;8.958;2023-09-19T10:28:12;20.40;99.90
3202;DHT22;34843;48.744;8.958;2023-09-19T10:30:44;20.40;99.90
3202;DHT22;34843;48.744;8.958;2023-09-19T10:33:14;20.40;99.90
3202;DHT22;34843;48.744;8.958;2023-09-19T10:35:43;20.50;99.90
3202;DHT22;34843;48.744;8.958;2023-09-19T10:38:11;20.60;99.90
3202;DHT22;34843;48.744;8.958;2023-09-19T10:40:37;20.60;99.90
3202;DHT22;34843;48.744;8.958;2023-09-19T10:43:17;20.70;99.90
3202;DHT22;34843;48.744;8.958;2023-09-19T10:45:45;20.60;99.90
3202;DHT22;34843;48.744;8.958;2023-09-19T10:48:12;20.40;99.90
3202;DHT22;34843;48.744;8.958;2023-09-19T10:50:50;20.30;99.90
3202;DHT22;34843;48.744;8.958;2023-09-19T10:53:17;20.30;99.90
3202;DHT22;34843;48.744;8.958;2023-09-19T10:55:50;20.30;99.90
3202;DHT22;34843;48.744;8.958;2023-09-19T10:58:29;20.30;99.90
3202;DHT22;34843;48.744;8.958;2023-09-19T11:00:56;20.30;99.90
3202;DHT22;34843;48.744;8.958;2023-09-19T11:03:23;20.20;99.90
3202;DHT22;34843;48.744;8.958;2023-09-19T11:06:16;20.10;99.90
3202;DHT22;34843;48.744;8.958;2023-09-19T11:08:53;20.00;99.90
3202;DHT22;34843;48.744;8.958;2023-09-19T11:25:51;20.10;99.90
3202;DHT22;34843;48.744;8.958;2023-09-19T11:30:51;20.70;99.90
3202;DHT22;34843;48.744;8.958;2023-09-19T11:43:48;21.20;99.90
3202;DHT22;34843;48.744;8.958;2023-09-19T11:46:14;21.10;99.90
3202;DHT22;34843;48.744;8.958;2023-09-19T11:48:47;21.10;99.90
3202;DHT22;34843;48.744;8.958;2023-09-19T11:51:14;21.20;99.90
3202;DHT22;34843;48.744;8.958;2023-09-19T11:53:46;21.10;99.90
3202;DHT22;34843;48.744;8.958;2023-09-19T11:56:15;21.10;99.90
3202;DHT22;34843;48.744;8.958;2023-09-19T11:58:46;21.20;99.90
3202;DHT22;34843;48.744;8.958;2023-09-19T12:01:15;21.50;99.90
3202;DHT22;34843;48.744;8.958;2023-09-19T12:03:47;21.70;99.90
3202;DHT22;34843;48.744;8.958;2023-09-19T12:06:18;21.90;99.90
3202;DHT22;34843;48.744;8.958;2023-09-19T12:08:44;22.10;99.90
3202;DHT22;34843;48.744;8.958;2023-09-19T12:11:16;22.00;99.90
3202;DHT22;34843;48.744;8.958;2023-09-19T12:13:47;21.80;99.90
3202;DHT22;34843;48.744;8.958;2023-09-19T12:16:14;21.70;99.90
3202;DHT22;34843;48.744;8.958;2023-09-19T12:18:41;21.60;99.90
3202;DHT22;34843;48.744;8.958;2023-09-19T12:21:27;21.50;99.90
3202;DHT22;34843;48.744;8.958;2023-09-19T12:24:20;21.60;99.90
3202;DHT22;34843;48.744;8.958;2023-09-19T12:26:46;21.70;99.90
3202;DHT22;34843;48.744;8.958;2023-09-19T12:29:21;21.80;99.90
3202;DHT22;34843;48.744;8.958;2023-09-19T12:31:54;22.00;99.90
3202;DHT22;34843;48.744;8.958;2023-09-19T12:34:27;22.10;99.90
3202;DHT22;34843;48.744;8.958;2023-09-19T12:37:13;22.30;99.90
3202;DHT22;34843;48.744;8.958;2023-09-19T12:39:48;22.50;99.90
3202;DHT22;34843;48.744;8.958;2023-09-19T12:42:16;22.50;99.90
3202;DHT22;34843;48.744;8.958;2023-09-19T12:44:43;22.50;99.90
3202;DHT22;34843;48.744;8.958;2023-09-19T12:47:14;22.50;99.90
3202;DHT22;34843;48.744;8.958;2023-09-19T12:50:06;22.60;99.90
3202;DHT22;34843;48.744;8.958;2023-09-19T12:52:37;22.20;99.90
3202;DHT22;34843;48.744;8.958;2023-09-19T12:55:02;22.00;99.90
3202;DHT22;34843;48.744;8.958;2023-09-19T12:57:28;21.60;99.90
3202;DHT22;34843;48.744;8.958;2023-09-19T12:59:57;21.30;99.90
3202;DHT22;34843;48.744;8.958;2023-09-19T13:02:23;21.10;99.90
3202;DHT22;34843;48.744;8.958;2023-09-19T13:04:54;21.30;99.90
3202;DHT22;34843;48.744;8.958;2023-09-19T13:07:43;21.30;99.90
3202;DHT22;34843;48.744;8.958;2023-09-19T13:10:11;21.10;99.90
3202;DHT22;34843;48.744;8.958;2023-09-19T13:12:40;21.10;99.90
3202;DHT22;34843;48.744;8.958;2023-09-19T13:15:11;21.20;99.90
3202;DHT22;34843;48.744;8.958;2023-09-19T13:17:48;21.50;99.90
3202;DHT22;34843;48.744;8.958;2023-09-19T13:20:23;21.50;99.90
3202;DHT22;34843;48.744;8.958;2023-09-19T13:22:57;21.70;99.90
3202;DHT22;34843;48.744;8.958;2023-09-19T13:25:31;21.60;99.90
3202;DHT22;34843;48.744;8.958;2023-09-19T13:27:58;21.30;99.90
3202;DHT22;34843;48.744;8.958;2023-09-19T13:30:26;21.30;99.90
3202;DHT22;34843;48.744;8.958;2023-09-19T13:33:05;21.20;99.90
3202;DHT22;34843;48.744;8.958;2023-09-19T13:35:35;21.20;99.90
3202;DHT22;34843;48.744;8.958;2023-09-19T13:38:02;21.40;99.90
3202;DHT22;34843;48.744;8.958;2023-09-19T13:40:27;21.70;99.90
3202;DHT22;34843;48.744;8.958;2023-09-19T13:42:56;21.80;99.90
3202;DHT22;34843;48.744;8.958;2023-09-19T13:45:22;21.60;99.90
3202;DHT22;34843;48.744;8.958;2023-09-19T13:47:50;21.40;99.90
3202;DHT22;34843;48.744;8.958;2023-09-19T13:50:15;21.40;99.90
3202;DHT22;34843;48.744;8.958;2023-09-19T13:52:42;21.40;99.90
3202;DHT22;34843;48.744;8.958;2023-09-19T13:55:08;21.30;99.90
3202;DHT22;34843;48.744;8.958;2023-09-19T13:57:33;21.40;99.90
3202;DHT22;34843;48.744;8.958;2023-09-19T13:59:59;21.40;99.90
3202;DHT22;34843;48.744;8.958;2023-09-19T14:02:25;21.30;99.90
3202;DHT22;34843;48.744;8.958;2023-09-19T14:04:53;21.20;99.90
3202;DHT22;34843;48.744;8.958;2023-09-19T14:07:19;21.20;99.90
3202;DHT22;34843;48.744;8.958;2023-09-19T14:09:45;21.40;99.90
3202;DHT22;34843;48.744;8.958;2023-09-19T14:12:11;21.50;99.90
3202;DHT22;34843;48.744;8.958;2023-09-19T14:14:37;21.60;99.90
3202;DHT22;34843;48.744;8.958;2023-09-19T14:17:03;21.80;99.90
3202;DHT22;34843;48.744;8.958;2023-09-19T14:19:29;21.90;99.90
3202;DHT22;34843;48.744;8.958;2023-09-19T14:21:55;21.80;99.90
3202;DHT22;34843;48.744;8.958;2023-09-19T14:24:22;21.70;99.90
3202;DHT22;34843;48.744;8.958;2023-09-19T14:26:48;21.60;99.90
3202;DHT22;34843;48.744;8.958;2023-09-19T14:29:15;21.60;99.90
3202;DHT22;34843;48.744;8.958;2023-09-19T14:31:41;21.70;99.90
3202;DHT22;34843;48.744;8.958;2023-09-19T14:34:07;22.00;99.90
3202;DHT22;34843;48.744;8.958;2023-09-19T14:36:35;22.20;99.90
3202;DHT22;34843;48.744;8.958;2023-09-19T14:39:01;22.30;99.90
3202;DHT22;34843;48.744;8.958;2023-09-19T14:41:27;22.30;99.90
3202;DHT22;34843;48.744;8.958;2023-09-19T14:43:53;22.40;99.90
3202;DHT22;34843;48.744;8.958;2023-09-19T14:46:18;22.40;99.90
3202;DHT22;34843;48.744;8.958;2023-09-19T14:48:45;22.40;99.90
3202;DHT22;34843;48.744;8.958;2023-09-19T14:51:13;22.30;99.90
3202;DHT22;34843;48.744;8.958;2023-09-19T14:53:39;22.20;99.90
3202;DHT22;34843;48.744;8.958;2023-09-19T14:56:06;22.10;99.90
3202;DHT22;34843;48.744;8.958;2023-09-19T14:58:33;21.90;99.90
3202;DHT22;34843;48.744;8.958;2023-09-19T15:01:09;21.90;99.90
3202;DHT22;34843;48.744;8.958;2023-09-19T15:03:39;21.90;99.90
3202;DHT22;34843;48.744;8.958;2023-09-19T15:06:11;21.80;99.90
3202;DHT22;34843;48.744;8.958;2023-09-19T15:08:41;21.80;99.90
3202;DHT22;34843;48.744;8.958;2023-09-19T15:11:08;21.90;99.90
3202;DHT22;34843;48.744;8.958;2023-09-19T15:13:34;21.90;99.90
3202;DHT22;34843;48.744;8.958;2023-09-19T15:16:04;21.90;99.90
3202;DHT22;34843;48.744;8.958;2023-09-19T15:18:30;21.80;99.90
3202;DHT22;34843;48.744;8.958;2023-09-19T15:21:02;21.70;99.90
3202;DHT22;34843;48.744;8.958;2023-09-19T15:23:29;21.60;99.90
3202;DHT22;34843;48.744;8.958;2023-09-19T15:25:56;21.60;99.90
3202;DHT22;34843;48.744;8.958;2023-09-19T15:28:22;21.70;99.90
3202;DHT22;34843;48.744;8.958;2023-09-19T15:30:49;21.80;99.90
3202;DHT22;34843;48.744;8.958;2023-09-19T15:33:14;21.80;99.90
3202;DHT22;34843;48.744;8.958;2023-09-19T15:35:40;21.90;99.90
3202;DHT22;34843;48.744;8.958;2023-09-19T15:38:07;21.90;99.90
3202;DHT22;34843;48.744;8.958;2023-09-19T15:40:33;21.70;99.90
3202;DHT22;34843;48.744;8.958;2023-09-19T15:42:59;21.70;99.90
3202;DHT22;34843;48.744;8.958;2023-09-19T15:45:26;21.60;99.90
3202;DHT22;34843;48.744;8.958;2023-09-19T15:47:51;21.50;99.90
3202;DHT22;34843;48.744;8.958;2023-09-19T15:50:18;21.40;99.90
3202;DHT22;34843;48.744;8.958;2023-09-19T15:52:44;21.50;99.90
3202;DHT22;34843;48.744;8.958;2023-09-19T15:55:09;21.40;99.90
3202;DHT22;34843;48.744;8.958;2023-09-19T15:57:38;21.30;99.90
3202;DHT22;34843;48.744;8.958;2023-09-19T16:00:05;21.30;99.90
3202;DHT22;34843;48.744;8.958;2023-09-19T16:02:36;21.20;99.90
3202;DHT22;34843;48.744;8.958;2023-09-19T16:05:02;21.10;99.90
3202;DHT22;34843;48.744;8.958;2023-09-19T16:07:31;21.10;99.90
3202;DHT22;34843;48.744;8.958;2023-09-19T16:09:56;21.20;99.90
3202;DHT22;34843;48.744;8.958;2023-09-19T16:12:22;21.30;99.90
3202;DHT22;34843;48.744;8.958;2023-09-19T16:14:48;21.30;99.90
3202;DHT22;34843;48.744;8.958;2023-09-19T16:17:14;21.30;99.90
3202;DHT22;34843;48.744;8.958;2023-09-19T16:19:40;21.30;99.90
3202;DHT22;34843;48.744;8.958;2023-09-19T16:22:06;21.20;99.90
3202;DHT22;34843;48.744;8.958;2023-09-19T16:24:33;21.10;99.90
3202;DHT22;34843;48.744;8.958;2023-09-19T16:26:59;21.00;99.90
3202;DHT22;34843;48.744;8.958;2023-09-19T16:29:25;21.00;99.90
3202;DHT22;34843;48.744;8.958;2023-09-19T16:31:50;20.90;99.90
3202;DHT22;34843;48.744;8.958;2023-09-19T16:34:16;20.90;99.90
3202;DHT22;34843;48.744;8.958;2023-09-19T16:36:41;20.80;99.90
3202;DHT22;34843;48.744;8.958;2023-09-19T16:39:07;20.80;99.90